Time,TemperatureF,DewpointF,PressureIn,WindDirection,WindDirectionDegrees,WindSpeedMPH,WindSpeedGustMPH,Humidity,HourlyPrecipIn,Conditions,Clouds,dailyrainin,SoftwareType,DateUTC
2013-06-03 00:03:00,60.2,59.0,29.89,ENE,76,0.0,0.0,96,0.00,,,0.30,weatherlink.com 1.10,2013-06-03 04:03:00,
2013-06-03 00:19:00,60.2,59.0,29.89,ENE,76,0.0,0.0,96,0.00,,,0.30,weatherlink.com 1.10,2013-06-03 04:19:00,
2013-06-03 00:34:00,60.3,59.0,29.89,ENE,76,0.0,2.0,96,0.00,,,0.30,weatherlink.com 1.10,2013-06-03 04:34:00,
2013-06-03 00:49:00,60.3,59.0,29.89,ENE,76,0.0,1.0,96,0.00,,,0.30,weatherlink.com 1.10,2013-06-03 04:49:00,
2013-06-03 01:04:00,60.3,59.0,29.89,ENE,76,0.0,0.0,96,0.00,,,0.30,weatherlink.com 1.10,2013-06-03 05:04:00,
2013-06-03 01:19:00,60.4,59.0,29.88,ENE,76,0.0,0.0,96,0.00,,,0.30,weatherlink.com 1.10,2013-06-03 05:19:00,
2013-06-03 01:34:00,60.4,60.0,29.89,ENE,76,0.0,0.0,97,0.00,,,0.30,weatherlink.com 1.10,2013-06-03 05:34:00,
2013-06-03 01:49:00,60.5,60.0,29.88,ENE,76,0.0,0.0,97,0.00,,,0.30,weatherlink.com 1.10,2013-06-03 05:49:00,
2013-06-03 02:04:00,60.5,60.0,29.88,ENE,76,0.0,0.0,97,0.00,,,0.30,weatherlink.com 1.10,2013-06-03 06:04:00,
2013-06-03 02:19:00,60.5,60.0,29.88,ENE,76,0.0,0.0,97,0.00,,,0.30,weatherlink.com 1.10,2013-06-03 06:19:00,
2013-06-03 02:34:00,60.5,60.0,29.88,ENE,76,0.0,0.0,97,0.00,,,0.30,weatherlink.com 1.10,2013-06-03 06:34:00,
2013-06-03 02:49:00,60.5,60.0,29.88,ENE,76,0.0,0.0,97,0.00,,,0.30,weatherlink.com 1.10,2013-06-03 06:49:00,
2013-06-03 03:04:00,60.4,60.0,29.87,ENE,76,0.0,0.0,97,0.00,,,0.30,weatherlink.com 1.10,2013-06-03 07:04:00,
2013-06-03 03:19:00,60.4,60.0,29.87,ENE,76,0.0,0.0,97,0.00,,,0.30,weatherlink.com 1.10,2013-06-03 07:19:00,
2013-06-03 03:34:00,60.3,60.0,29.86,ENE,76,0.0,0.0,97,0.00,,,0.30,weatherlink.com 1.10,2013-06-03 07:34:00,
2013-06-03 03:49:00,60.3,60.0,29.86,ENE,76,0.0,1.0,97,0.00,,,0.30,weatherlink.com 1.10,2013-06-03 07:49:00,
2013-06-03 04:04:00,60.2,59.0,29.85,ENE,76,0.0,0.0,97,0.00,,,0.30,weatherlink.com 1.10,2013-06-03 08:04:00,
2013-06-03 04:19:00,60.2,59.0,29.85,ENE,76,0.0,0.0,97,0.00,,,0.30,weatherlink.com 1.10,2013-06-03 08:19:00,
2013-06-03 04:34:00,60.3,60.0,29.85,ENE,76,0.0,2.0,97,0.00,,,0.00,weatherlink.com 1.10,2013-06-03 08:34:00,
2013-06-03 04:49:00,60.2,59.0,29.85,ENE,76,0.0,2.0,97,0.00,,,0.00,weatherlink.com 1.10,2013-06-03 08:49:00,
2013-06-03 05:04:00,60.2,59.0,29.85,ENE,76,0.0,1.0,97,0.00,,,0.00,weatherlink.com 1.10,2013-06-03 09:04:00,
2013-06-03 05:19:00,60.2,59.0,29.86,ENE,76,0.0,2.0,97,0.00,,,0.00,weatherlink.com 1.10,2013-06-03 09:19:00,
2013-06-03 05:34:00,60.3,60.0,29.87,ENE,76,0.0,1.0,97,0.00,,,0.00,weatherlink.com 1.10,2013-06-03 09:34:00,
2013-06-03 05:49:00,60.2,59.0,29.87,ENE,76,0.0,1.0,97,0.00,,,0.00,weatherlink.com 1.10,2013-06-03 09:49:00,
2013-06-03 06:04:00,60.1,59.0,29.88,ENE,76,0.0,0.0,97,0.00,,,0.00,weatherlink.com 1.10,2013-06-03 10:04:00,
2013-06-03 06:19:00,60.2,59.0,29.88,ENE,76,0.0,0.0,97,0.00,,,0.00,weatherlink.com 1.10,2013-06-03 10:19:00,
2013-06-03 06:34:00,60.2,59.0,29.89,ENE,76,0.0,0.0,97,0.00,,,0.00,weatherlink.com 1.10,2013-06-03 10:34:00,
2013-06-03 06:49:00,60.3,60.0,29.89,ENE,76,0.0,0.0,97,0.00,,,0.00,weatherlink.com 1.10,2013-06-03 10:49:00,
2013-06-03 07:04:00,60.4,60.0,29.89,ENE,76,0.0,0.0,97,0.00,,,0.00,weatherlink.com 1.10,2013-06-03 11:04:00,
2013-06-03 07:19:00,60.7,60.0,29.89,ENE,76,0.0,0.0,97,0.00,,,0.00,weatherlink.com 1.10,2013-06-03 11:19:00,
2013-06-03 07:34:00,60.9,60.0,29.89,ENE,76,0.0,2.0,97,0.00,,,0.00,weatherlink.com 1.10,2013-06-03 11:34:00,
2013-06-03 07:49:00,61.3,61.0,29.89,ENE,76,1.0,1.0,97,0.00,,,0.00,weatherlink.com 1.10,2013-06-03 11:49:00,
2013-06-03 08:04:00,61.9,61.0,29.89,ENE,76,0.0,0.0,97,0.00,,,0.00,weatherlink.com 1.10,2013-06-03 12:04:00,
2013-06-03 08:19:00,62.6,62.0,29.89,ENE,76,0.0,0.0,97,0.00,,,0.00,weatherlink.com 1.10,2013-06-03 12:19:00,
2013-06-03 08:34:00,63.5,63.0,29.89,ENE,77,0.0,2.0,98,0.00,,,0.00,weatherlink.com 1.10,2013-06-03 12:34:00,
2013-06-03 08:49:00,64.2,63.0,29.90,ESE,104,2.0,4.0,97,0.00,,,0.00,weatherlink.com 1.10,2013-06-03 12:49:00,
2013-06-03 09:04:00,65.7,64.0,29.90,ESE,106,3.0,6.0,94,0.00,,,0.00,weatherlink.com 1.10,2013-06-03 13:04:00,
2013-06-03 09:19:00,67.2,63.0,29.90,SE,142,1.0,7.0,87,0.00,,,0.00,weatherlink.com 1.10,2013-06-03 13:19:00,
2013-06-03 09:34:00,68.1,64.0,29.90,ESE,107,2.0,8.0,85,0.00,,,0.00,weatherlink.com 1.10,2013-06-03 13:34:00,
2013-06-03 09:49:00,69.4,64.0,29.90,ENE,73,4.0,6.0,82,0.00,,,0.00,weatherlink.com 1.10,2013-06-03 13:49:00,
2013-06-03 10:05:00,69.4,63.0,29.90,ESE,113,1.0,9.0,80,0.00,,,0.00,weatherlink.com 1.10,2013-06-03 14:05:00,
2013-06-03 10:19:00,69.2,62.0,29.91,ENE,72,2.0,9.0,78,0.00,,,0.00,weatherlink.com 1.10,2013-06-03 14:19:00,
2013-06-03 10:34:00,69.4,63.0,29.91,East,93,1.0,7.0,80,0.00,,,0.00,weatherlink.com 1.10,2013-06-03 14:34:00,
2013-06-03 10:49:00,70.2,63.0,29.91,SE,129,2.0,7.0,79,0.00,,,0.00,weatherlink.com 1.10,2013-06-03 14:49:00,
2013-06-03 11:05:00,71.3,64.0,29.91,ENE,67,5.0,8.0,77,0.00,,,0.00,weatherlink.com 1.10,2013-06-03 15:05:00,
2013-06-03 11:20:00,71.9,62.0,29.91,ENE,78,3.0,9.0,70,0.00,,,0.00,weatherlink.com 1.10,2013-06-03 15:20:00,
2013-06-03 11:35:00,72.3,64.0,29.91,ESE,103,0.0,6.0,76,0.00,,,0.00,weatherlink.com 1.10,2013-06-03 15:35:00,
2013-06-03 11:50:00,73.1,63.0,29.91,East,88,1.0,10.0,70,0.00,,,0.00,weatherlink.com 1.10,2013-06-03 15:50:00,
2013-06-03 12:05:00,72.4,63.0,29.91,ENE,70,2.0,6.0,71,0.00,,,0.00,weatherlink.com 1.10,2013-06-03 16:05:00,
2013-06-03 12:20:00,73.0,63.0,29.90,ENE,77,1.0,9.0,71,0.00,,,0.00,weatherlink.com 1.10,2013-06-03 16:20:00,
2013-06-03 12:35:00,73.0,62.0,29.91,East,96,1.0,8.0,68,0.00,,,0.00,weatherlink.com 1.10,2013-06-03 16:35:00,
2013-06-03 12:50:00,74.2,62.0,29.91,ESE,102,0.0,7.0,66,0.00,,,0.00,weatherlink.com 1.10,2013-06-03 16:50:00,
2013-06-03 13:05:00,75.2,62.0,29.91,ESE,103,3.0,9.0,64,0.00,,,0.00,weatherlink.com 1.10,2013-06-03 17:05:00,
2013-06-03 13:20:00,74.1,61.0,29.91,East,92,5.0,10.0,64,0.00,,,0.00,weatherlink.com 1.10,2013-06-03 17:20:00,
2013-06-03 13:35:00,73.5,61.0,29.90,ENE,70,3.0,9.0,66,0.00,,,0.00,weatherlink.com 1.10,2013-06-03 17:35:00,
2013-06-03 13:51:00,74.1,62.0,29.89,East,84,0.0,9.0,66,0.00,,,0.00,weatherlink.com 1.10,2013-06-03 17:51:00,
2013-06-03 14:05:00,74.5,62.0,29.89,East,94,1.0,8.0,65,0.00,,,0.00,weatherlink.com 1.10,2013-06-03 18:05:00,
2013-06-03 14:20:00,74.1,61.0,29.89,SE,141,0.0,12.0,64,0.00,,,0.00,weatherlink.com 1.10,2013-06-03 18:20:00,
2013-06-03 14:35:00,74.7,61.0,29.88,ESE,112,5.0,9.0,62,0.00,,,0.00,weatherlink.com 1.10,2013-06-03 18:35:00,
2013-06-03 14:50:00,75.0,61.0,29.88,WNW,295,1.0,11.0,61,0.00,,,0.00,weatherlink.com 1.10,2013-06-03 18:50:00,
2013-06-03 15:05:00,74.8,58.0,29.88,East,92,2.0,25.0,57,0.00,,,0.00,weatherlink.com 1.10,2013-06-03 19:05:00,
2013-06-03 15:20:00,74.2,60.0,29.87,ESE,103,1.0,7.0,61,0.00,,,0.00,weatherlink.com 1.10,2013-06-03 19:20:00,
2013-06-03 15:35:00,75.4,59.0,29.86,ENE,72,2.0,9.0,58,0.00,,,0.00,weatherlink.com 1.10,2013-06-03 19:35:00,
2013-06-03 15:50:00,76.4,61.0,29.86,ESE,102,2.0,10.0,59,0.00,,,0.00,weatherlink.com 1.10,2013-06-03 19:50:00,
2013-06-03 16:05:00,76.4,60.0,29.86,East,99,6.0,11.0,58,0.00,,,0.00,weatherlink.com 1.10,2013-06-03 20:05:00,
2013-06-03 16:20:00,75.1,61.0,29.86,ESE,102,2.0,9.0,61,0.00,,,0.00,weatherlink.com 1.10,2013-06-03 20:20:00,
2013-06-03 16:35:00,74.3,63.0,29.85,ESE,107,2.0,9.0,67,0.00,,,0.00,weatherlink.com 1.10,2013-06-03 20:35:00,
2013-06-03 16:50:00,75.2,61.0,29.85,East,96,3.0,9.0,62,0.00,,,0.00,weatherlink.com 1.10,2013-06-03 20:50:00,
2013-06-03 17:05:00,75.0,60.0,29.85,ESE,121,0.0,7.0,60,0.00,,,0.00,weatherlink.com 1.10,2013-06-03 21:05:00,
2013-06-03 17:20:00,73.7,58.0,29.85,NE,47,1.0,10.0,59,0.00,,,0.00,weatherlink.com 1.10,2013-06-03 21:20:00,
2013-06-03 17:35:00,73.4,59.0,29.85,ENE,73,4.0,8.0,60,0.00,,,0.00,weatherlink.com 1.10,2013-06-03 21:35:00,
2013-06-03 17:50:00,74.3,59.0,29.86,East,80,5.0,7.0,59,0.00,,,0.00,weatherlink.com 1.10,2013-06-03 21:50:00,
2013-06-03 18:05:00,74.3,59.0,29.86,SE,142,0.0,5.0,60,0.00,,,0.00,weatherlink.com 1.10,2013-06-03 22:05:00,
2013-06-03 18:20:00,73.4,59.0,29.86,ENE,77,0.0,5.0,61,0.00,,,0.00,weatherlink.com 1.10,2013-06-03 22:20:00,
2013-06-03 18:38:00,73.8,58.0,29.86,West,273,0.0,10.0,59,0.00,,,0.00,weatherlink.com 1.10,2013-06-03 22:38:00,
2013-06-03 18:50:00,73.9,58.0,29.86,ESE,107,0.0,5.0,57,0.00,,,0.00,weatherlink.com 1.10,2013-06-03 22:50:00,
2013-06-03 19:05:00,73.7,57.0,29.87,East,91,1.0,2.0,57,0.00,,,0.00,weatherlink.com 1.10,2013-06-03 23:05:00,
2013-06-03 19:20:00,72.4,60.0,29.88,ENE,76,0.0,2.0,65,0.00,,,0.00,weatherlink.com 1.10,2013-06-03 23:20:00,
2013-06-03 19:35:00,71.9,59.0,29.88,ENE,76,1.0,3.0,63,0.00,,,0.00,weatherlink.com 1.10,2013-06-03 23:35:00,
2013-06-03 19:50:00,70.5,60.0,29.88,ENE,76,0.0,2.0,69,0.00,,,0.00,weatherlink.com 1.10,2013-06-03 23:50:00,
2013-06-03 20:05:00,69.0,60.0,29.88,ENE,76,0.0,1.0,73,0.00,,,0.00,weatherlink.com 1.10,2013-06-04 00:05:00,
2013-06-03 20:20:00,67.6,60.0,29.89,ENE,76,0.0,2.0,76,0.00,,,0.00,weatherlink.com 1.10,2013-06-04 00:20:00,
2013-06-03 20:35:00,66.0,59.0,29.89,ENE,76,0.0,1.0,77,0.00,,,0.00,weatherlink.com 1.10,2013-06-04 00:35:00,
2013-06-03 20:50:00,64.6,59.0,29.90,ENE,76,0.0,0.0,81,0.00,,,0.00,weatherlink.com 1.10,2013-06-04 00:50:00,
2013-06-03 21:05:00,63.4,58.0,29.91,ENE,76,0.0,0.0,82,0.00,,,0.00,weatherlink.com 1.10,2013-06-04 01:05:00,
2013-06-03 21:20:00,62.7,58.0,29.91,ENE,76,0.0,0.0,84,0.00,,,0.00,weatherlink.com 1.10,2013-06-04 01:20:00,
2013-06-03 21:35:00,62.0,58.0,29.92,ENE,76,0.0,0.0,86,0.00,,,0.00,weatherlink.com 1.10,2013-06-04 01:35:00,
2013-06-03 21:50:00,61.8,58.0,29.93,ENE,76,0.0,2.0,87,0.00,,,0.00,weatherlink.com 1.10,2013-06-04 01:50:00,
2013-06-03 22:05:00,61.2,58.0,29.93,ENE,76,0.0,0.0,88,0.00,,,0.00,weatherlink.com 1.10,2013-06-04 02:05:00,
2013-06-03 22:20:00,60.5,57.0,29.94,ENE,76,0.0,0.0,89,0.00,,,0.00,weatherlink.com 1.10,2013-06-04 02:20:00,
2013-06-03 22:35:00,60.1,57.0,29.95,ENE,76,0.0,0.0,89,0.00,,,0.00,weatherlink.com 1.10,2013-06-04 02:35:00,
2013-06-03 22:50:00,59.4,57.0,29.96,ENE,76,0.0,2.0,90,0.00,,,0.00,weatherlink.com 1.10,2013-06-04 02:50:00,
2013-06-03 23:05:00,58.9,56.0,29.96,ENE,76,0.0,2.0,90,0.00,,,0.00,weatherlink.com 1.10,2013-06-04 03:05:00,
2013-06-03 23:20:00,58.4,56.0,29.96,ENE,76,0.0,0.0,91,0.00,,,0.00,weatherlink.com 1.10,2013-06-04 03:20:00,
2013-06-03 23:35:00,58.1,56.0,29.97,ENE,76,0.0,0.0,92,0.00,,,0.00,weatherlink.com 1.10,2013-06-04 03:35:00,
2013-06-03 23:50:00,57.8,56.0,29.97,ENE,76,0.0,0.0,92,0.00,,,0.00,weatherlink.com 1.10,2013-06-04 03:50:00,